sensor_id;sensor_type;location;lat;lon;timestamp;temperature;humidity
18085;DHT22;9169;44.492;11.372;2024-02-15T00:00:07;13.50;50.40
18085;DHT22;9169;44.492;11.372;2024-02-15T00:02:37;13.50;50.40
18085;DHT22;9169;44.492;11.372;2024-02-15T00:05:06;13.50;50.40
18085;DHT22;9169;44.492;11.372;2024-02-15T00:07:35;13.50;50.30
18085;DHT22;9169;44.492;11.372;2024-02-15T00:10:05;13.40;50.20
18085;DHT22;9169;44.492;11.372;2024-02-15T00:12:36;13.40;50.20
18085;DHT22;9169;44.492;11.372;2024-02-15T00:15:05;13.40;50.20
18085;DHT22;9169;44.492;11.372;2024-02-15T00:17:34;13.40;50.20
18085;DHT22;9169;44.492;11.372;2024-02-15T00:20:05;13.40;50.20
18085;DHT22;9169;44.492;11.372;2024-02-15T00:22:36;13.30;50.20
18085;DHT22;9169;44.492;11.372;2024-02-15T00:25:06;13.30;50.20
18085;DHT22;9169;44.492;11.372;2024-02-15T00:27:36;13.30;50.20
18085;DHT22;9169;44.492;11.372;2024-02-15T00:30:05;13.30;50.20
18085;DHT22;9169;44.492;11.372;2024-02-15T00:32:35;13.30;50.20
18085;DHT22;9169;44.492;11.372;2024-02-15T00:35:05;13.30;50.20
18085;DHT22;9169;44.492;11.372;2024-02-15T00:37:36;13.30;50.20
18085;DHT22;9169;44.492;11.372;2024-02-15T00:40:06;13.30;50.20
18085;DHT22;9169;44.492;11.372;2024-02-15T00:42:36;13.30;50.20
18085;DHT22;9169;44.492;11.372;2024-02-15T00:45:05;13.20;50.20
18085;DHT22;9169;44.492;11.372;2024-02-15T00:47:36;13.20;50.20
18085;DHT22;9169;44.492;11.372;2024-02-15T00:50:07;13.20;50.30
18085;DHT22;9169;44.492;11.372;2024-02-15T00:52:36;13.20;50.40
18085;DHT22;9169;44.492;11.372;2024-02-15T00:55:05;13.20;50.40
18085;DHT22;9169;44.492;11.372;2024-02-15T00:57:33;13.10;50.30
18085;DHT22;9169;44.492;11.372;2024-02-15T01:00:03;13.10;50.20
18085;DHT22;9169;44.492;11.372;2024-02-15T01:02:36;13.10;50.40
18085;DHT22;9169;44.492;11.372;2024-02-15T01:05:07;13.10;50.40
18085;DHT22;9169;44.492;11.372;2024-02-15T01:07:37;13.10;50.50
18085;DHT22;9169;44.492;11.372;2024-02-15T01:10:06;13.10;50.50
18085;DHT22;9169;44.492;11.372;2024-02-15T01:12:35;13.10;50.50
18085;DHT22;9169;44.492;11.372;2024-02-15T01:15:05;13.10;50.40
18085;DHT22;9169;44.492;11.372;2024-02-15T01:17:34;13.10;50.50
18085;DHT22;9169;44.492;11.372;2024-02-15T01:20:03;13.10;50.40
18085;DHT22;9169;44.492;11.372;2024-02-15T01:22:34;13.00;50.50
18085;DHT22;9169;44.492;11.372;2024-02-15T01:25:03;13.00;50.50
18085;DHT22;9169;44.492;11.372;2024-02-15T01:27:31;13.00;50.40
18085;DHT22;9169;44.492;11.372;2024-02-15T01:30:01;13.00;50.40
18085;DHT22;9169;44.492;11.372;2024-02-15T01:32:30;13.00;50.40
18085;DHT22;9169;44.492;11.372;2024-02-15T01:34:59;13.00;50.90
18085;DHT22;9169;44.492;11.372;2024-02-15T01:37:29;13.00;50.30
18085;DHT22;9169;44.492;11.372;2024-02-15T01:39:59;13.00;50.40
18085;DHT22;9169;44.492;11.372;2024-02-15T01:42:28;13.00;50.40
18085;DHT22;9169;44.492;11.372;2024-02-15T01:44:57;13.00;50.40
18085;DHT22;9169;44.492;11.372;2024-02-15T01:47:25;12.90;50.30
18085;DHT22;9169;44.492;11.372;2024-02-15T01:49:54;12.90;50.30
18085;DHT22;9169;44.492;11.372;2024-02-15T01:52:24;12.90;50.40
18085;DHT22;9169;44.492;11.372;2024-02-15T01:54:54;12.90;50.30
18085;DHT22;9169;44.492;11.372;2024-02-15T01:57:24;12.90;50.30
18085;DHT22;9169;44.492;11.372;2024-02-15T01:59:53;12.90;50.40
18085;DHT22;9169;44.492;11.372;2024-02-15T02:02:22;12.90;50.40
18085;DHT22;9169;44.492;11.372;2024-02-15T02:04:53;12.90;50.40
18085;DHT22;9169;44.492;11.372;2024-02-15T02:07:23;12.90;50.40
18085;DHT22;9169;44.492;11.372;2024-02-15T02:09:51;12.80;50.30
18085;DHT22;9169;44.492;11.372;2024-02-15T02:12:20;12.80;50.30
18085;DHT22;9169;44.492;11.372;2024-02-15T02:14:51;12.80;50.30
18085;DHT22;9169;44.492;11.372;2024-02-15T02:17:20;12.80;50.30
18085;DHT22;9169;44.492;11.372;2024-02-15T02:19:49;12.80;50.30
18085;DHT22;9169;44.492;11.372;2024-02-15T02:22:19;12.80;50.40
18085;DHT22;9169;44.492;11.372;2024-02-15T02:24:58;12.70;50.40
18085;DHT22;9169;44.492;11.372;2024-02-15T02:27:28;12.70;50.40
18085;DHT22;9169;44.492;11.372;2024-02-15T02:29:58;12.70;50.40
18085;DHT22;9169;44.492;11.372;2024-02-15T02:32:27;12.70;50.40
18085;DHT22;9169;44.492;11.372;2024-02-15T02:34:56;12.70;51.10
18085;DHT22;9169;44.492;11.372;2024-02-15T02:37:25;12.70;50.60
18085;DHT22;9169;44.492;11.372;2024-02-15T02:39:55;12.60;50.50
18085;DHT22;9169;44.492;11.372;2024-02-15T02:42:24;12.60;50.60
18085;DHT22;9169;44.492;11.372;2024-02-15T02:44:53;12.60;50.70
18085;DHT22;9169;44.492;11.372;2024-02-15T02:47:22;12.60;50.90
18085;DHT22;9169;44.492;11.372;2024-02-15T02:49:50;12.60;51.00
18085;DHT22;9169;44.492;11.372;2024-02-15T02:52:19;12.50;50.90
18085;DHT22;9169;44.492;11.372;2024-02-15T02:54:48;12.50;50.90
18085;DHT22;9169;44.492;11.372;2024-02-15T02:57:18;12.50;50.90
18085;DHT22;9169;44.492;11.372;2024-02-15T02:59:46;12.50;50.90
18085;DHT22;9169;44.492;11.372;2024-02-15T03:02:15;12.50;51.10
18085;DHT22;9169;44.492;11.372;2024-02-15T03:04:45;12.50;51.20
18085;DHT22;9169;44.492;11.372;2024-02-15T03:07:13;12.50;51.20
18085;DHT22;9169;44.492;11.372;2024-02-15T03:09:45;12.50;51.20
18085;DHT22;9169;44.492;11.372;2024-02-15T03:12:14;12.50;51.20
18085;DHT22;9169;44.492;11.372;2024-02-15T03:14:46;12.50;51.20
18085;DHT22;9169;44.492;11.372;2024-02-15T03:17:15;12.50;51.20
18085;DHT22;9169;44.492;11.372;2024-02-15T03:19:43;12.50;51.20
18085;DHT22;9169;44.492;11.372;2024-02-15T03:22:12;12.50;51.30
18085;DHT22;9169;44.492;11.372;2024-02-15T03:24:41;12.50;51.30
18085;DHT22;9169;44.492;11.372;2024-02-15T03:27:09;12.50;51.50
18085;DHT22;9169;44.492;11.372;2024-02-15T03:29:39;12.50;51.50
18085;DHT22;9169;44.492;11.372;2024-02-15T03:32:09;12.40;51.60
18085;DHT22;9169;44.492;11.372;2024-02-15T03:34:38;12.40;51.50
18085;DHT22;9169;44.492;11.372;2024-02-15T03:37:07;12.40;51.50
18085;DHT22;9169;44.492;11.372;2024-02-15T03:39:36;12.40;51.50
18085;DHT22;9169;44.492;11.372;2024-02-15T03:42:05;12.40;51.40
18085;DHT22;9169;44.492;11.372;2024-02-15T03:44:34;12.40;51.40
18085;DHT22;9169;44.492;11.372;2024-02-15T03:47:03;12.40;51.50
18085;DHT22;9169;44.492;11.372;2024-02-15T03:49:33;12.40;51.40
18085;DHT22;9169;44.492;11.372;2024-02-15T03:52:02;12.40;51.50
18085;DHT22;9169;44.492;11.372;2024-02-15T03:54:31;12.40;51.60
18085;DHT22;9169;44.492;11.372;2024-02-15T03:57:00;12.30;51.60
18085;DHT22;9169;44.492;11.372;2024-02-15T03:59:29;12.30;51.70
18085;DHT22;9169;44.492;11.372;2024-02-15T04:01:59;12.30;51.60
18085;DHT22;9169;44.492;11.372;2024-02-15T04:04:30;12.30;51.80
18085;DHT22;9169;44.492;11.372;2024-02-15T04:07:00;12.20;51.90
18085;DHT22;9169;44.492;11.372;2024-02-15T04:09:29;12.20;51.90
18085;DHT22;9169;44.492;11.372;2024-02-15T04:11:57;12.20;52.00
18085;DHT22;9169;44.492;11.372;2024-02-15T04:14:26;12.20;52.00
18085;DHT22;9169;44.492;11.372;2024-02-15T04:16:55;12.20;52.00
18085;DHT22;9169;44.492;11.372;2024-02-15T04:19:24;12.10;51.70
18085;DHT22;9169;44.492;11.372;2024-02-15T04:21:53;12.20;51.80
18085;DHT22;9169;44.492;11.372;2024-02-15T04:24:24;12.20;51.70
18085;DHT22;9169;44.492;11.372;2024-02-15T04:26:53;12.20;51.70
18085;DHT22;9169;44.492;11.372;2024-02-15T04:29:21;12.20;51.60
18085;DHT22;9169;44.492;11.372;2024-02-15T04:31:50;12.20;51.60
18085;DHT22;9169;44.492;11.372;2024-02-15T04:34:19;12.20;51.60
18085;DHT22;9169;44.492;11.372;2024-02-15T04:36:48;12.20;51.70
18085;DHT22;9169;44.492;11.372;2024-02-15T04:39:18;12.20;51.70
18085;DHT22;9169;44.492;11.372;2024-02-15T04:41:53;12.20;51.60
18085;DHT22;9169;44.492;11.372;2024-02-15T04:44:22;12.10;51.60
18085;DHT22;9169;44.492;11.372;2024-02-15T04:46:54;12.10;51.60
18085;DHT22;9169;44.492;11.372;2024-02-15T04:49:23;12.10;51.60
18085;DHT22;9169;44.492;11.372;2024-02-15T04:51:52;12.10;51.60
18085;DHT22;9169;44.492;11.372;2024-02-15T04:54:21;12.10;51.40
18085;DHT22;9169;44.492;11.372;2024-02-15T04:56:49;12.10;51.40
18085;DHT22;9169;44.492;11.372;2024-02-15T04:59:22;12.10;51.40
18085;DHT22;9169;44.492;11.372;2024-02-15T05:01:53;12.10;51.30
18085;DHT22;9169;44.492;11.372;2024-02-15T05:06:53;12.10;50.70
18085;DHT22;9169;44.492;11.372;2024-02-15T05:09:23;12.10;51.10
18085;DHT22;9169;44.492;11.372;2024-02-15T05:11:53;12.10;51.00
18085;DHT22;9169;44.492;11.372;2024-02-15T05:14:23;12.00;50.90
18085;DHT22;9169;44.492;11.372;2024-02-15T05:16:53;12.00;51.10
18085;DHT22;9169;44.492;11.372;2024-02-15T05:19:22;12.00;51.10
18085;DHT22;9169;44.492;11.372;2024-02-15T05:21:51;11.90;51.10
18085;DHT22;9169;44.492;11.372;2024-02-15T05:24:20;11.90;51.20
18085;DHT22;9169;44.492;11.372;2024-02-15T05:26:49;11.90;51.40
18085;DHT22;9169;44.492;11.372;2024-02-15T05:29:18;11.90;51.40
18085;DHT22;9169;44.492;11.372;2024-02-15T05:31:49;11.80;51.30
18085;DHT22;9169;44.492;11.372;2024-02-15T05:34:18;11.90;51.40
18085;DHT22;9169;44.492;11.372;2024-02-15T05:36:47;11.90;51.40
18085;DHT22;9169;44.492;11.372;2024-02-15T05:39:16;11.80;51.40
18085;DHT22;9169;44.492;11.372;2024-02-15T05:41:48;11.80;51.50
18085;DHT22;9169;44.492;11.372;2024-02-15T05:44:17;11.80;51.50
18085;DHT22;9169;44.492;11.372;2024-02-15T05:46:49;11.80;51.50
18085;DHT22;9169;44.492;11.372;2024-02-15T05:49:18;11.80;51.50
18085;DHT22;9169;44.492;11.372;2024-02-15T05:51:47;11.80;51.50
18085;DHT22;9169;44.492;11.372;2024-02-15T05:54:16;11.80;51.40
18085;DHT22;9169;44.492;11.372;2024-02-15T05:56:46;11.80;51.40
18085;DHT22;9169;44.492;11.372;2024-02-15T05:59:19;11.80;51.40
18085;DHT22;9169;44.492;11.372;2024-02-15T06:01:49;11.80;51.40
18085;DHT22;9169;44.492;11.372;2024-02-15T06:04:18;11.80;51.40
18085;DHT22;9169;44.492;11.372;2024-02-15T06:06:47;11.80;51.30
18085;DHT22;9169;44.492;11.372;2024-02-15T06:09:17;11.80;51.30
18085;DHT22;9169;44.492;11.372;2024-02-15T06:11:49;11.80;51.30
18085;DHT22;9169;44.492;11.372;2024-02-15T06:14:19;11.80;51.40
18085;DHT22;9169;44.492;11.372;2024-02-15T06:16:49;11.80;51.40
18085;DHT22;9169;44.492;11.372;2024-02-15T06:19:18;11.80;51.50
18085;DHT22;9169;44.492;11.372;2024-02-15T06:21:47;11.80;51.50
18085;DHT22;9169;44.492;11.372;2024-02-15T06:24:16;11.80;51.60
18085;DHT22;9169;44.492;11.372;2024-02-15T06:26:45;11.80;51.70
18085;DHT22;9169;44.492;11.372;2024-02-15T06:29:16;11.70;51.70
18085;DHT22;9169;44.492;11.372;2024-02-15T06:32:04;11.80;51.80
18085;DHT22;9169;44.492;11.372;2024-02-15T06:34:50;11.80;51.80
18085;DHT22;9169;44.492;11.372;2024-02-15T06:37:37;11.80;51.80
18085;DHT22;9169;44.492;11.372;2024-02-15T06:40:23;11.80;51.90
18085;DHT22;9169;44.492;11.372;2024-02-15T06:42:51;11.80;52.00
18085;DHT22;9169;44.492;11.372;2024-02-15T06:45:20;11.80;52.00
18085;DHT22;9169;44.492;11.372;2024-02-15T06:47:51;11.80;52.00
18085;DHT22;9169;44.492;11.372;2024-02-15T06:50:20;11.80;52.20
18085;DHT22;9169;44.492;11.372;2024-02-15T06:52:49;11.80;52.20
18085;DHT22;9169;44.492;11.372;2024-02-15T06:55:19;11.80;52.20
18085;DHT22;9169;44.492;11.372;2024-02-15T06:57:49;11.80;52.30
18085;DHT22;9169;44.492;11.372;2024-02-15T07:00:18;11.90;52.50
18085;DHT22;9169;44.492;11.372;2024-02-15T07:02:46;11.90;52.60
18085;DHT22;9169;44.492;11.372;2024-02-15T07:05:17;11.90;52.60
18085;DHT22;9169;44.492;11.372;2024-02-15T07:07:46;11.80;52.50
18085;DHT22;9169;44.492;11.372;2024-02-15T07:10:14;11.80;52.60
18085;DHT22;9169;44.492;11.372;2024-02-15T07:12:44;11.80;52.60
18085;DHT22;9169;44.492;11.372;2024-02-15T07:15:13;11.80;52.50
18085;DHT22;9169;44.492;11.372;2024-02-15T07:17:41;11.90;52.50
18085;DHT22;9169;44.492;11.372;2024-02-15T07:20:11;11.90;52.60
18085;DHT22;9169;44.492;11.372;2024-02-15T07:22:45;11.90;52.60
18085;DHT22;9169;44.492;11.372;2024-02-15T07:25:14;11.90;52.60
18085;DHT22;9169;44.492;11.372;2024-02-15T07:27:43;11.90;52.50
18085;DHT22;9169;44.492;11.372;2024-02-15T07:30:12;11.90;52.60
18085;DHT22;9169;44.492;11.372;2024-02-15T07:32:42;11.90;52.60
18085;DHT22;9169;44.492;11.372;2024-02-15T07:35:10;11.90;52.60
18085;DHT22;9169;44.492;11.372;2024-02-15T07:37:40;11.90;52.60
18085;DHT22;9169;44.492;11.372;2024-02-15T07:40:20;12.00;52.70
18085;DHT22;9169;44.492;11.372;2024-02-15T07:42:50;12.00;52.70
18085;DHT22;9169;44.492;11.372;2024-02-15T07:45:19;12.00;52.70
18085;DHT22;9169;44.492;11.372;2024-02-15T07:47:48;12.10;52.80
18085;DHT22;9169;44.492;11.372;2024-02-15T07:50:18;12.10;52.80
18085;DHT22;9169;44.492;11.372;2024-02-15T07:52:50;12.20;52.80
18085;DHT22;9169;44.492;11.372;2024-02-15T07:55:20;12.20;52.80
18085;DHT22;9169;44.492;11.372;2024-02-15T07:57:48;12.20;52.90
18085;DHT22;9169;44.492;11.372;2024-02-15T08:00:17;12.20;52.90
18085;DHT22;9169;44.492;11.372;2024-02-15T08:02:46;12.30;52.90
18085;DHT22;9169;44.492;11.372;2024-02-15T08:05:15;12.30;52.90
18085;DHT22;9169;44.492;11.372;2024-02-15T08:07:45;12.40;53.00
18085;DHT22;9169;44.492;11.372;2024-02-15T08:10:14;12.40;53.00
18085;DHT22;9169;44.492;11.372;2024-02-15T08:12:46;12.40;53.10
18085;DHT22;9169;44.492;11.372;2024-02-15T08:15:19;12.60;55.00
18085;DHT22;9169;44.492;11.372;2024-02-15T08:17:48;13.00;56.80
18085;DHT22;9169;44.492;11.372;2024-02-15T08:20:17;13.50;57.90
18085;DHT22;9169;44.492;11.372;2024-02-15T08:22:48;14.10;58.10
18085;DHT22;9169;44.492;11.372;2024-02-15T08:25:17;14.60;57.10
18085;DHT22;9169;44.492;11.372;2024-02-15T08:27:48;15.00;56.10
18085;DHT22;9169;44.492;11.372;2024-02-15T08:30:18;15.30;54.70
18085;DHT22;9169;44.492;11.372;2024-02-15T08:32:48;15.40;53.50
18085;DHT22;9169;44.492;11.372;2024-02-15T08:35:17;15.50;53.50
18085;DHT22;9169;44.492;11.372;2024-02-15T08:37:46;15.80;54.60
18085;DHT22;9169;44.492;11.372;2024-02-15T08:40:18;16.20;55.30
18085;DHT22;9169;44.492;11.372;2024-02-15T08:42:53;16.60;53.80
18085;DHT22;9169;44.492;11.372;2024-02-15T08:45:22;16.90;53.00
18085;DHT22;9169;44.492;11.372;2024-02-15T08:47:52;17.30;53.40
18085;DHT22;9169;44.492;11.372;2024-02-15T08:50:21;17.60;52.30
18085;DHT22;9169;44.492;11.372;2024-02-15T08:52:51;17.90;51.80
18085;DHT22;9169;44.492;11.372;2024-02-15T08:55:19;18.10;51.90
18085;DHT22;9169;44.492;11.372;2024-02-15T08:57:53;18.40;51.40
18085;DHT22;9169;44.492;11.372;2024-02-15T09:00:22;18.70;50.80
18085;DHT22;9169;44.492;11.372;2024-02-15T09:02:54;19.10;51.60
18085;DHT22;9169;44.492;11.372;2024-02-15T09:05:24;19.50;51.00
18085;DHT22;9169;44.492;11.372;2024-02-15T09:07:53;19.80;50.20
18085;DHT22;9169;44.492;11.372;2024-02-15T09:10:22;19.80;49.20
18085;DHT22;9169;44.492;11.372;2024-02-15T09:12:52;19.70;48.40
18085;DHT22;9169;44.492;11.372;2024-02-15T09:15:21;19.50;47.20
18085;DHT22;9169;44.492;11.372;2024-02-15T09:17:50;19.20;46.60
18085;DHT22;9169;44.492;11.372;2024-02-15T09:20:22;19.00;46.50
18085;DHT22;9169;44.492;11.372;2024-02-15T09:22:53;18.70;46.00
18085;DHT22;9169;44.492;11.372;2024-02-15T09:25:23;18.40;45.60
18085;DHT22;9169;44.492;11.372;2024-02-15T09:27:53;18.20;45.70
18085;DHT22;9169;44.492;11.372;2024-02-15T09:30:22;18.00;45.30
18085;DHT22;9169;44.492;11.372;2024-02-15T09:32:52;17.70;45.20
18085;DHT22;9169;44.492;11.372;2024-02-15T09:35:20;17.60;45.40
18085;DHT22;9169;44.492;11.372;2024-02-15T09:37:49;17.50;45.60
18085;DHT22;9169;44.492;11.372;2024-02-15T09:40:19;17.30;45.40
18085;DHT22;9169;44.492;11.372;2024-02-15T09:42:48;17.20;45.40
18085;DHT22;9169;44.492;11.372;2024-02-15T09:45:20;17.00;45.50
18085;DHT22;9169;44.492;11.372;2024-02-15T09:47:52;17.00;45.60
18085;DHT22;9169;44.492;11.372;2024-02-15T09:50:23;16.80;45.40
18085;DHT22;9169;44.492;11.372;2024-02-15T09:52:53;16.70;45.60
18085;DHT22;9169;44.492;11.372;2024-02-15T09:55:22;16.60;46.20
18085;DHT22;9169;44.492;11.372;2024-02-15T09:57:51;16.50;45.80
18085;DHT22;9169;44.492;11.372;2024-02-15T10:00:22;16.40;45.80
18085;DHT22;9169;44.492;11.372;2024-02-15T10:02:54;16.30;45.90
18085;DHT22;9169;44.492;11.372;2024-02-15T10:05:23;16.30;46.00
18085;DHT22;9169;44.492;11.372;2024-02-15T10:07:51;16.20;45.80
18085;DHT22;9169;44.492;11.372;2024-02-15T10:10:22;16.10;45.90
18085;DHT22;9169;44.492;11.372;2024-02-15T10:12:52;16.10;46.10
18085;DHT22;9169;44.492;11.372;2024-02-15T10:15:33;16.10;46.10
18085;DHT22;9169;44.492;11.372;2024-02-15T10:18:03;16.10;46.30
18085;DHT22;9169;44.492;11.372;2024-02-15T10:20:33;16.20;46.60
18085;DHT22;9169;44.492;11.372;2024-02-15T10:23:14;16.20;46.70
18085;DHT22;9169;44.492;11.372;2024-02-15T10:25:45;16.20;46.90
18085;DHT22;9169;44.492;11.372;2024-02-15T10:28:20;16.20;47.00
18085;DHT22;9169;44.492;11.372;2024-02-15T10:30:52;16.20;47.00
18085;DHT22;9169;44.492;11.372;2024-02-15T10:33:27;16.20;47.20
18085;DHT22;9169;44.492;11.372;2024-02-15T10:36:05;16.20;47.30
18085;DHT22;9169;44.492;11.372;2024-02-15T10:38:35;16.20;47.30
18085;DHT22;9169;44.492;11.372;2024-02-15T10:41:05;16.30;47.40
18085;DHT22;9169;44.492;11.372;2024-02-15T10:43:35;16.30;47.50
18085;DHT22;9169;44.492;11.372;2024-02-15T10:46:06;16.30;47.60
18085;DHT22;9169;44.492;11.372;2024-02-15T10:48:37;16.30;47.60
18085;DHT22;9169;44.492;11.372;2024-02-15T10:51:10;16.20;47.60
18085;DHT22;9169;44.492;11.372;2024-02-15T10:53:47;16.30;47.90
18085;DHT22;9169;44.492;11.372;2024-02-15T10:56:18;16.30;48.00
18085;DHT22;9169;44.492;11.372;2024-02-15T10:58:50;16.20;48.00
18085;DHT22;9169;44.492;11.372;2024-02-15T11:01:25;16.30;48.10
18085;DHT22;9169;44.492;11.372;2024-02-15T11:03:59;16.20;48.00
18085;DHT22;9169;44.492;11.372;2024-02-15T11:06:28;16.30;48.20
18085;DHT22;9169;44.492;11.372;2024-02-15T11:08:59;16.30;48.30
18085;DHT22;9169;44.492;11.372;2024-02-15T11:11:30;16.30;48.30
18085;DHT22;9169;44.492;11.372;2024-02-15T11:14:32;16.40;48.30
18085;DHT22;9169;44.492;11.372;2024-02-15T11:17:04;16.40;48.30
18085;DHT22;9169;44.492;11.372;2024-02-15T11:19:41;16.40;48.50
18085;DHT22;9169;44.492;11.372;2024-02-15T11:22:14;16.40;48.60
18085;DHT22;9169;44.492;11.372;2024-02-15T11:24:47;16.50;48.60
18085;DHT22;9169;44.492;11.372;2024-02-15T11:27:26;16.40;48.60
18085;DHT22;9169;44.492;11.372;2024-02-15T11:29:59;16.50;48.70
18085;DHT22;9169;44.492;11.372;2024-02-15T11:32:37;16.50;48.80
18085;DHT22;9169;44.492;11.372;2024-02-15T11:35:08;16.50;48.90
18085;DHT22;9169;44.492;11.372;2024-02-15T11:37:57;16.50;48.90
18085;DHT22;9169;44.492;11.372;2024-02-15T11:41:02;16.50;48.90
18085;DHT22;9169;44.492;11.372;2024-02-15T11:43:47;16.50;48.90
18085;DHT22;9169;44.492;11.372;2024-02-15T11:46:18;16.50;49.00
18085;DHT22;9169;44.492;11.372;2024-02-15T11:48:48;16.60;49.20
18085;DHT22;9169;44.492;11.372;2024-02-15T11:51:30;16.60;49.30
18085;DHT22;9169;44.492;11.372;2024-02-15T11:54:05;16.60;49.20
18085;DHT22;9169;44.492;11.372;2024-02-15T11:56:50;16.70;49.40
18085;DHT22;9169;44.492;11.372;2024-02-15T11:59:22;16.70;49.20
18085;DHT22;9169;44.492;11.372;2024-02-15T12:02:10;16.70;49.40
18085;DHT22;9169;44.492;11.372;2024-02-15T12:04:57;16.80;49.50
18085;DHT22;9169;44.492;11.372;2024-02-15T12:07:43;16.80;49.50
18085;DHT22;9169;44.492;11.372;2024-02-15T12:10:30;16.80;49.50
18085;DHT22;9169;44.492;11.372;2024-02-15T12:13:17;16.90;49.60
18085;DHT22;9169;44.492;11.372;2024-02-15T12:16:04;16.90;49.70
18085;DHT22;9169;44.492;11.372;2024-02-15T12:18:50;17.00;49.70
18085;DHT22;9169;44.492;11.372;2024-02-15T12:21:24;17.00;49.70
18085;DHT22;9169;44.492;11.372;2024-02-15T12:23:54;17.00;49.50
18085;DHT22;9169;44.492;11.372;2024-02-15T12:26:24;17.00;49.60
18085;DHT22;9169;44.492;11.372;2024-02-15T12:28:54;17.10;49.60
18085;DHT22;9169;44.492;11.372;2024-02-15T12:31:25;17.10;49.70
18085;DHT22;9169;44.492;11.372;2024-02-15T12:34:01;17.10;49.70
18085;DHT22;9169;44.492;11.372;2024-02-15T12:36:36;17.10;49.70
18085;DHT22;9169;44.492;11.372;2024-02-15T12:39:06;17.10;49.90
18085;DHT22;9169;44.492;11.372;2024-02-15T12:41:39;17.20;50.00
18085;DHT22;9169;44.492;11.372;2024-02-15T12:44:08;17.20;50.00
18085;DHT22;9169;44.492;11.372;2024-02-15T12:46:38;17.30;50.10
18085;DHT22;9169;44.492;11.372;2024-02-15T12:49:10;17.30;50.10
18085;DHT22;9169;44.492;11.372;2024-02-15T12:51:50;17.30;50.10
18085;DHT22;9169;44.492;11.372;2024-02-15T12:54:20;17.40;50.00
18085;DHT22;9169;44.492;11.372;2024-02-15T12:56:49;17.40;50.00
18085;DHT22;9169;44.492;11.372;2024-02-15T12:59:19;17.50;50.00
18085;DHT22;9169;44.492;11.372;2024-02-15T13:01:49;17.50;49.90
18085;DHT22;9169;44.492;11.372;2024-02-15T13:04:23;17.50;49.90
18085;DHT22;9169;44.492;11.372;2024-02-15T13:06:54;17.50;49.80
18085;DHT22;9169;44.492;11.372;2024-02-15T13:09:23;17.60;50.00
18085;DHT22;9169;44.492;11.372;2024-02-15T13:11:52;17.60;50.10
18085;DHT22;9169;44.492;11.372;2024-02-15T13:14:21;17.80;51.40
18085;DHT22;9169;44.492;11.372;2024-02-15T13:16:49;18.30;53.70
18085;DHT22;9169;44.492;11.372;2024-02-15T13:19:18;18.90;53.80
18085;DHT22;9169;44.492;11.372;2024-02-15T13:21:48;19.60;54.00
18085;DHT22;9169;44.492;11.372;2024-02-15T13:24:21;20.40;54.40
18085;DHT22;9169;44.492;11.372;2024-02-15T13:26:53;21.10;53.90
18085;DHT22;9169;44.492;11.372;2024-02-15T13:29:24;21.80;52.20
18085;DHT22;9169;44.492;11.372;2024-02-15T13:31:53;22.40;50.40
18085;DHT22;9169;44.492;11.372;2024-02-15T13:34:21;22.70;48.80
18085;DHT22;9169;44.492;11.372;2024-02-15T13:36:51;22.80;47.80
18085;DHT22;9169;44.492;11.372;2024-02-15T13:39:23;22.90;48.40
18085;DHT22;9169;44.492;11.372;2024-02-15T13:41:52;23.20;48.80
18085;DHT22;9169;44.492;11.372;2024-02-15T13:44:20;23.50;48.40
18085;DHT22;9169;44.492;11.372;2024-02-15T13:46:52;23.70;48.70
18085;DHT22;9169;44.492;11.372;2024-02-15T13:49:22;24.10;48.60
18085;DHT22;9169;44.492;11.372;2024-02-15T13:51:52;24.50;48.60
18085;DHT22;9169;44.492;11.372;2024-02-15T13:54:22;25.10;47.40
18085;DHT22;9169;44.492;11.372;2024-02-15T13:56:51;25.50;47.40
18085;DHT22;9169;44.492;11.372;2024-02-15T13:59:19;25.70;46.40
18085;DHT22;9169;44.492;11.372;2024-02-15T14:01:48;25.90;46.20
18085;DHT22;9169;44.492;11.372;2024-02-15T14:04:16;26.10;45.30
18085;DHT22;9169;44.492;11.372;2024-02-15T14:06:45;26.20;44.70
18085;DHT22;9169;44.492;11.372;2024-02-15T14:09:14;26.30;44.60
18085;DHT22;9169;44.492;11.372;2024-02-15T14:11:45;26.50;44.70
18085;DHT22;9169;44.492;11.372;2024-02-15T14:14:14;26.80;44.30
18085;DHT22;9169;44.492;11.372;2024-02-15T14:16:44;26.90;44.00
18085;DHT22;9169;44.492;11.372;2024-02-15T14:19:13;27.20;44.00
18085;DHT22;9169;44.492;11.372;2024-02-15T14:21:42;27.30;43.30
18085;DHT22;9169;44.492;11.372;2024-02-15T14:24:12;27.40;42.50
18085;DHT22;9169;44.492;11.372;2024-02-15T14:26:40;27.20;41.70
18085;DHT22;9169;44.492;11.372;2024-02-15T14:29:11;27.10;41.20
18085;DHT22;9169;44.492;11.372;2024-02-15T14:31:41;26.80;40.70
18085;DHT22;9169;44.492;11.372;2024-02-15T14:34:27;26.50;40.40
18085;DHT22;9169;44.492;11.372;2024-02-15T14:36:56;26.20;40.60
18085;DHT22;9169;44.492;11.372;2024-02-15T14:39:28;25.90;40.40
18085;DHT22;9169;44.492;11.372;2024-02-15T14:41:57;25.60;40.50
18085;DHT22;9169;44.492;11.372;2024-02-15T14:44:27;25.30;40.50
18085;DHT22;9169;44.492;11.372;2024-02-15T14:46:56;25.10;40.50
18085;DHT22;9169;44.492;11.372;2024-02-15T14:49:25;24.70;40.60
18085;DHT22;9169;44.492;11.372;2024-02-15T14:51:54;24.40;40.70
18085;DHT22;9169;44.492;11.372;2024-02-15T14:54:23;24.20;41.20
18085;DHT22;9169;44.492;11.372;2024-02-15T14:56:52;23.90;41.20
18085;DHT22;9169;44.492;11.372;2024-02-15T14:59:24;23.80;41.50
18085;DHT22;9169;44.492;11.372;2024-02-15T15:01:54;23.60;41.50
18085;DHT22;9169;44.492;11.372;2024-02-15T15:04:28;23.50;41.70
18085;DHT22;9169;44.492;11.372;2024-02-15T15:07:02;23.30;41.80
18085;DHT22;9169;44.492;11.372;2024-02-15T15:09:48;23.10;41.70
18085;DHT22;9169;44.492;11.372;2024-02-15T15:12:34;22.90;42.00
18085;DHT22;9169;44.492;11.372;2024-02-15T15:15:09;22.60;42.20
18085;DHT22;9169;44.492;11.372;2024-02-15T15:17:41;22.50;42.60
18085;DHT22;9169;44.492;11.372;2024-02-15T15:20:11;22.30;42.40
18085;DHT22;9169;44.492;11.372;2024-02-15T15:22:40;22.20;42.80
18085;DHT22;9169;44.492;11.372;2024-02-15T15:25:09;22.00;42.80
18085;DHT22;9169;44.492;11.372;2024-02-15T15:27:38;21.80;43.00
18085;DHT22;9169;44.492;11.372;2024-02-15T15:30:07;21.60;43.00
18085;DHT22;9169;44.492;11.372;2024-02-15T15:32:37;21.50;43.20
18085;DHT22;9169;44.492;11.372;2024-02-15T15:35:08;21.40;43.20
18085;DHT22;9169;44.492;11.372;2024-02-15T15:37:37;21.20;43.20
18085;DHT22;9169;44.492;11.372;2024-02-15T15:40:07;21.10;43.30
18085;DHT22;9169;44.492;11.372;2024-02-15T15:42:36;20.90;43.40
18085;DHT22;9169;44.492;11.372;2024-02-15T15:45:06;20.80;43.60
18085;DHT22;9169;44.492;11.372;2024-02-15T15:47:36;20.70;43.80
18085;DHT22;9169;44.492;11.372;2024-02-15T15:50:05;20.70;44.00
18085;DHT22;9169;44.492;11.372;2024-02-15T15:52:36;20.60;44.00
18085;DHT22;9169;44.492;11.372;2024-02-15T15:55:06;20.50;44.20